Time;durP1;ratioP1;P1;durP2;ratioP2;P2;SDS_P1;SDS_P2;PMS_P1;PMS_P2;Temp;Humidity;BMP_temperature;BMP_pressure;BME280_temperature;BME280_humidity;BME280_pressure;Samples;Min_cycle;Max_cycle;Signal;HPM_P1;HPM_P2
2021/08/23 00:01:36;;;;;;;;;;;;;;;26.40;59.96;101268.84;5090111;28;1330;-62
2021/08/23 00:04:04;;;;;;;;;;;;;;;26.38;60.21;101273.47;5090078;28;1154;-62
2021/08/23 00:06:31;;;;;;;;;;;;;;;26.35;60.25;101274.59;5089990;28;1227;-61
2021/08/23 00:08:58;;;;;;;;;;;;;;;26.36;59.58;101268.25;5089853;28;1140;-61
2021/08/23 00:11:25;;;;;;;;;;;;;;;26.35;59.80;101266.56;5071634;28;1319;-62
2021/08/23 00:13:53;;;;;;;;;;;;;;;26.39;60.03;101267.13;5069793;28;902;-62
2021/08/23 00:16:20;;;;;;;;;;;;;;;26.37;59.45;101261.94;5069088;28;1987;-61
2021/08/23 00:18:47;;;;;;;;;;;;;;;26.36;59.85;101262.91;5069175;28;872;-62
2021/08/23 00:21:20;;;;;;;;;;;;;;;26.38;59.46;101271.66;5069600;28;1182;-62
2021/08/23 00:23:53;;;;;;;;;;;;;;;26.38;59.94;101268.13;5069159;28;943;-62
2021/08/23 00:26:21;;;;;;;;;;;;;;;26.39;59.46;101265.31;5069252;28;1260;-62
2021/08/23 00:28:48;;;;;;;;;;;;;;;26.38;59.54;101271.66;5069205;28;949;-62
2021/08/23 00:31:15;;;;;;;;;;;;;;;26.42;59.35;101272.25;5069119;28;1331;-62
2021/08/23 00:33:42;;;;;;;;;;;;;;;26.43;58.95;101269.47;5069479;28;1230;-62
2021/08/23 00:36:08;;;;;;;;;;;;;;;26.40;59.22;101268.84;5069030;28;1938;-62
2021/08/23 00:38:35;;;;;;;;;;;;;;;26.40;58.81;101266.19;5071542;28;1498;-61
2021/08/23 00:41:02;;;;;;;;;;;;;;;26.38;59.17;101271.66;5069018;28;1327;-61
2021/08/23 00:43:29;;;;;;;;;;;;;;;26.42;58.99;101270.41;5076166;28;921;-62
2021/08/23 00:45:57;;;;;;;;;;;;;;;26.41;58.79;101268.75;5089266;28;1314;-62
2021/08/23 00:48:24;;;;;;;;;;;;;;;26.42;58.87;101258.88;5088935;28;1098;-62
2021/08/23 00:50:51;;;;;;;;;;;;;;;26.42;58.95;101261.56;5088442;28;1205;-62
2021/08/23 00:53:18;;;;;;;;;;;;;;;26.40;58.81;101259.03;5089044;28;1381;-61
2021/08/23 00:55:44;;;;;;;;;;;;;;;26.36;59.10;101262.06;5087348;28;1918;-61
2021/08/23 00:58:11;;;;;;;;;;;;;;;26.38;58.92;101260.13;5089156;28;1059;-60
2021/08/23 01:00:40;;;;;;;;;;;;;;;26.35;58.46;101265.72;5088648;28;1165;-61
2021/08/23 01:03:12;;;;;;;;;;;;;;;26.35;58.92;101266.56;5087953;28;1120;-61
2021/08/23 01:05:40;;;;;;;;;;;;;;;26.41;58.83;101260.72;5089150;28;1358;-61
2021/08/23 01:08:12;;;;;;;;;;;;;;;26.36;58.93;101262.06;5089077;28;1025;-61
2021/08/23 01:10:46;;;;;;;;;;;;;;;26.39;58.99;101259.13;5088791;28;1241;-61
2021/08/23 01:13:13;;;;;;;;;;;;;;;26.41;58.22;101252.72;5088815;28;966;-62
2021/08/23 01:15:40;;;;;;;;;;;;;;;26.36;59.32;101246.88;5087156;28;1910;-61
2021/08/23 01:18:07;;;;;;;;;;;;;;;26.38;58.68;101244.09;5088255;28;996;-61
2021/08/23 01:20:34;;;;;;;;;;;;;;;26.34;58.65;101239.97;5088568;28;1216;-62
2021/08/23 01:23:01;;;;;;;;;;;;;;;26.31;59.30;101241.06;5079953;28;1173;-60
2021/08/23 01:25:29;;;;;;;;;;;;;;;26.31;59.13;101238.41;5067999;28;1220;-59
2021/08/23 01:28:01;;;;;;;;;;;;;;;26.31;59.22;101240.22;5067860;28;1010;-62
2021/08/23 01:30:34;;;;;;;;;;;;;;;26.32;59.29;101245.44;5066470;28;1252;-60
2021/08/23 01:33:01;;;;;;;;;;;;;;;26.28;59.34;101249.34;5068197;28;1099;-60
2021/08/23 01:35:28;;;;;;;;;;;;;;;26.25;59.68;101243.38;5067825;28;1981;-60
2021/08/23 01:37:55;;;;;;;;;;;;;;;26.29;59.48;101232.34;5068254;28;1187;-62
2021/08/23 01:40:21;;;;;;;;;;;;;;;26.31;59.08;101237.53;5067801;28;1327;-61
2021/08/23 01:42:49;;;;;;;;;;;;;;;26.30;59.24;101235.84;5068163;28;798;-61
2021/08/23 01:45:15;;;;;;;;;;;;;;;26.30;58.92;101236.69;5067359;28;1316;-61
2021/08/23 01:47:42;;;;;;;;;;;;;;;26.29;58.69;101240.34;5067816;28;1018;-62
2021/08/23 01:50:09;;;;;;;;;;;;;;;26.27;59.12;101231.59;5068022;28;1227;-62
2021/08/23 01:52:36;;;;;;;;;;;;;;;26.30;58.54;101236.69;5067839;28;1413;-62
2021/08/23 01:55:04;;;;;;;;;;;;;;;26.26;59.16;101234.41;5066495;28;2285;-62
2021/08/23 01:57:31;;;;;;;;;;;;;;;26.25;59.04;101238.91;5068076;28;1220;-62
2021/08/23 01:59:57;;;;;;;;;;;;;;;26.25;58.84;101238.91;5067558;28;1376;-61
2021/08/23 02:02:24;;;;;;;;;;;;;;;26.31;59.15;101238.41;5067842;28;1283;-60
2021/08/23 02:05:11;;;;;;;;;;;;;;;26.34;58.68;101237.31;5067847;28;1444;-61
2021/08/23 02:07:38;;;;;;;;;;;;;;;26.33;59.04;101239.13;5067784;28;782;-60
2021/08/23 02:10:05;;;;;;;;;;;;;;;26.30;58.96;101242.03;5068174;28;1118;-61
2021/08/23 02:12:32;;;;;;;;;;;;;;;26.31;58.58;101237.53;5067899;28;1209;-61
2021/08/23 02:14:59;;;;;;;;;;;;;;;26.30;58.85;101242.03;5068220;28;1197;-61
2021/08/23 02:17:25;;;;;;;;;;;;;;;26.26;59.24;101245.09;5071644;28;1972;-61
2021/08/23 02:19:52;;;;;;;;;;;;;;;26.26;59.12;101240.59;5072196;28;1263;-61
2021/08/23 02:22:19;;;;;;;;;;;;;;;26.24;58.96;101242.53;5071605;28;1290;-60
2021/08/23 02:24:46;;;;;;;;;;;;;;;26.23;58.77;101240.84;5072067;28;1124;-61
2021/08/23 02:27:12;;;;;;;;;;;;;;;26.25;58.46;101236.22;5071572;28;1244;-61
2021/08/23 02:29:39;;;;;;;;;;;;;;;26.29;58.64;101240.34;5071618;28;1037;-61
2021/08/23 02:32:06;;;;;;;;;;;;;;;26.28;58.71;101246.66;5069703;28;1212;-61
2021/08/23 02:34:33;;;;;;;;;;;;;;;26.27;58.62;101231.59;5071175;28;1067;-61
2021/08/23 02:37:00;;;;;;;;;;;;;;;26.24;58.36;101239.00;5071256;28;1914;-61
2021/08/23 02:39:26;;;;;;;;;;;;;;;26.26;58.64;101240.59;5072200;28;1030;-61
2021/08/23 02:41:54;;;;;;;;;;;;;;;26.26;58.26;101239.75;5071932;28;1193;-61
2021/08/23 02:44:21;;;;;;;;;;;;;;;26.25;58.53;101238.03;5071357;28;1489;-60
2021/08/23 02:46:48;;;;;;;;;;;;;;;26.22;58.18;101233.81;5071154;28;1308;-60
2021/08/23 02:49:16;;;;;;;;;;;;;;;26.25;58.03;101233.56;5071533;28;1123;-61
2021/08/23 02:51:43;;;;;;;;;;;;;;;26.29;57.62;101236.84;5071417;28;1231;-62
2021/08/23 02:54:10;;;;;;;;;;;;;;;26.24;58.03;101231.84;5071281;28;1409;-62
2021/08/23 02:56:37;;;;;;;;;;;;;;;26.21;58.28;101228.56;5070775;28;1910;-61
2021/08/23 02:59:03;;;;;;;;;;;;;;;26.23;57.99;101226.66;5071141;28;1086;-62
2021/08/23 03:01:30;;;;;;;;;;;;;;;26.26;58.04;101226.41;5070646;28;1193;-62
2021/08/23 03:03:57;;;;;;;;;;;;;;;26.26;57.93;101224.59;5071202;28;1126;-62
2021/08/23 03:06:24;;;;;;;;;;;;;;;26.26;57.85;101229.94;5070674;28;1232;-62
2021/08/23 03:08:50;;;;;;;;;;;;;;;26.22;58.00;101223.13;5069202;28;1978;-61
2021/08/23 03:11:17;;;;;;;;;;;;;;;26.22;57.57;101216.94;5070655;28;1227;-61
2021/08/23 03:13:44;;;;;;;;;;;;;;;26.23;57.68;101223.97;5069512;28;1047;-62
2021/08/23 03:16:12;;;;;;;;;;;;;;;26.22;58.08;101222.28;5070254;28;1988;-61
2021/08/23 03:18:39;;;;;;;;;;;;;;;26.23;57.90;101222.16;5070785;28;1047;-60
2021/08/23 03:21:06;;;;;;;;;;;;;;;26.18;57.85;101219.00;5070662;28;1251;-61
2021/08/23 03:23:33;;;;;;;;;;;;;;;26.13;57.90;101207.81;5070481;28;1134;-60
2021/08/23 03:26:01;;;;;;;;;;;;;;;26.15;58.28;101211.22;5069403;28;1215;-60
2021/08/23 03:28:28;;;;;;;;;;;;;;;26.14;58.37;101208.66;5068896;28;1231;-62
2021/08/23 03:30:56;;;;;;;;;;;;;;;26.14;58.22;101209.53;5068617;28;1240;-61
2021/08/23 03:33:23;;;;;;;;;;;;;;;26.14;58.03;101209.53;5070447;28;1132;-61
2021/08/23 03:35:50;;;;;;;;;;;;;;;26.16;58.19;101207.59;5070161;28;1934;-62
2021/08/23 03:38:18;;;;;;;;;;;;;;;26.20;57.99;101208.22;5070181;28;1040;-60
2021/08/23 03:40:45;;;;;;;;;;;;;;;26.18;57.87;101207.47;5070015;28;1230;-61
2021/08/23 03:43:12;;;;;;;;;;;;;;;26.21;57.69;101208.06;5069556;28;1042;-61
2021/08/23 03:45:39;;;;;;;;;;;;;;;26.20;57.95;101208.22;5070343;28;1248;-61
2021/08/23 03:48:05;;;;;;;;;;;;;;;26.19;58.21;101198.50;5070004;28;1139;-62
2021/08/23 03:50:32;;;;;;;;;;;;;;;26.20;58.02;101197.53;5070161;28;1213;-61
2021/08/23 03:52:59;;;;;;;;;;;;;;;26.19;58.07;101190.47;5069474;28;1047;-62
2021/08/23 03:55:27;;;;;;;;;;;;;;;26.18;57.87;101184.28;5070612;28;1586;-61
2021/08/23 03:57:53;;;;;;;;;;;;;;;26.11;58.13;101191.09;5069910;28;2043;-62
2021/08/23 04:00:21;;;;;;;;;;;;;;;26.15;57.75;101192.53;5075072;28;1628;-61
2021/08/23 04:02:47;;;;;;;;;;;;;;;26.08;58.24;101191.34;5073223;28;1079;-61
2021/08/23 04:05:14;;;;;;;;;;;;;;;26.09;58.02;101190.34;5080807;28;1439;-61
2021/08/23 04:07:41;;;;;;;;;;;;;;;26.12;58.24;101184.75;5069500;28;865;-62
2021/08/23 04:10:08;;;;;;;;;;;;;;;26.11;57.82;101177.72;5070139;28;1196;-61
2021/08/23 04:12:35;;;;;;;;;;;;;;;26.06;58.52;101182.56;5081978;28;1325;-61
2021/08/23 04:15:02;;;;;;;;;;;;;;;26.13;58.25;101180.25;5089939;28;1209;-62
2021/08/23 04:17:28;;;;;;;;;;;;;;;26.10;58.33;101173.34;5089488;28;1909;-61
2021/08/23 04:19:55;;;;;;;;;;;;;;;26.11;58.39;101174.22;5090160;28;1221;-61
2021/08/23 04:22:22;;;;;;;;;;;;;;;26.11;58.31;101174.22;5089762;28;1298;-61
2021/08/23 04:24:49;;;;;;;;;;;;;;;26.10;58.49;101181.38;5082657;28;1584;-60
2021/08/23 04:27:15;;;;;;;;;;;;;;;26.09;58.39;101180.50;5087577;28;1252;-61
2021/08/23 04:29:42;;;;;;;;;;;;;;;26.12;58.56;101183.91;5089770;28;1195;-61
2021/08/23 04:32:09;;;;;;;;;;;;;;;26.03;58.69;101172.16;5073869;28;1197;-60
2021/08/23 04:34:37;;;;;;;;;;;;;;;26.04;58.89;101169.38;5069418;28;1092;-60
2021/08/23 04:37:04;;;;;;;;;;;;;;;26.06;58.95;101162.06;5068553;28;1910;-61
2021/08/23 04:39:31;;;;;;;;;;;;;;;26.07;58.56;101166.44;5068225;28;1071;-60
2021/08/23 04:41:58;;;;;;;;;;;;;;;26.06;58.87;101158.56;5067255;28;1245;-60
2021/08/23 04:44:25;;;;;;;;;;;;;;;26.11;58.30;101167.06;5068996;28;1118;-61
2021/08/23 04:46:52;;;;;;;;;;;;;;;26.06;59.04;101153.22;5066956;28;1315;-60
2021/08/23 04:49:19;;;;;;;;;;;;;;;26.03;58.80;101166.81;5068792;28;1127;-61
2021/08/23 04:51:45;;;;;;;;;;;;;;;26.04;59.21;101164.03;5068594;28;1173;-60
2021/08/23 04:54:12;;;;;;;;;;;;;;;26.05;59.37;101170.22;5068630;28;1482;-60
2021/08/23 04:56:39;;;;;;;;;;;;;;;26.04;59.10;101171.19;5068568;28;1906;-61
2021/08/23 04:59:05;;;;;;;;;;;;;;;26.04;59.49;101173.84;5066926;28;1253;-60
2021/08/23 05:01:32;;;;;;;;;;;;;;;26.03;59.46;101161.47;5068640;28;1315;-61
2021/08/23 05:03:59;;;;;;;;;;;;;;;26.03;59.47;101170.34;5068554;28;1050;-61
2021/08/23 05:06:26;;;;;;;;;;;;;;;26.02;59.32;101170.47;5068409;28;1217;-60
2021/08/23 05:08:54;;;;;;;;;;;;;;;26.06;58.97;101169.22;5068290;28;1535;-60
2021/08/23 05:11:21;;;;;;;;;;;;;;;26.09;58.70;101166.31;5068688;28;1181;-61
2021/08/23 05:13:48;;;;;;;;;;;;;;;26.01;59.14;101168.75;5068795;28;1054;-61
2021/08/23 05:16:14;;;;;;;;;;;;;;;26.03;59.22;101172.16;5068874;28;1890;-62
2021/08/23 05:18:41;;;;;;;;;;;;;;;26.05;59.23;101175.56;5067512;28;1111;-62
2021/08/23 05:21:08;;;;;;;;;;;;;;;26.05;59.30;101176.38;5068391;28;1334;-62
2021/08/23 05:23:35;;;;;;;;;;;;;;;26.02;59.14;101178.47;5068400;28;1071;-61
2021/08/23 05:26:05;;;;;;;;;;;;;;;26.01;59.39;101182.13;5068137;28;1197;-61
2021/08/23 05:28:32;;;;;;;;;;;;;;;26.03;59.22;101180.16;5068334;28;1560;-62
2021/08/23 05:30:58;;;;;;;;;;;;;;;25.99;59.52;101184.88;5067960;28;1244;-62
2021/08/23 05:33:25;;;;;;;;;;;;;;;26.04;59.20;101185.38;5067240;28;1040;-61
2021/08/23 05:35:52;;;;;;;;;;;;;;;26.05;59.21;101191.59;5073683;28;1565;-61
2021/08/23 05:38:18;;;;;;;;;;;;;;;26.06;59.38;101186.09;5088109;28;1969;-60
2021/08/23 05:40:45;;;;;;;;;;;;;;;26.07;59.22;101187.81;5079408;28;1266;-60
2021/08/23 05:43:12;;;;;;;;;;;;;;;26.03;59.61;101189.03;5071287;28;1593;-61
2021/08/23 05:45:41;;;;;;;;;;;;;;;26.10;59.38;101202.72;5078703;28;1216;-62
2021/08/23 05:48:08;;;;;;;;;;;;;;;26.14;59.27;101201.50;5067543;28;1156;-61
2021/08/23 05:50:35;;;;;;;;;;;;;;;26.14;59.21;101203.34;5066945;28;1323;-61
2021/08/23 05:53:02;;;;;;;;;;;;;;;26.15;60.05;101191.66;5067516;28;1576;-62
2021/08/23 05:55:28;;;;;;;;;;;;;;;26.17;59.55;101190.63;5066659;28;1537;-62
2021/08/23 05:57:55;;;;;;;;;;;;;;;26.16;59.92;101186.25;5065253;28;1984;-66
2021/08/23 06:00:22;;;;;;;;;;;;;;;26.15;59.82;101189.88;5075075;28;1422;-62
2021/08/23 06:02:49;;;;;;;;;;;;;;;26.22;59.66;101190.22;5066828;28;865;-61
2021/08/23 06:05:16;;;;;;;;;;;;;;;26.23;59.93;101184.78;5067078;28;1268;-62
2021/08/23 06:07:42;;;;;;;;;;;;;;;26.26;60.11;101189.00;5067407;28;837;-62
2021/08/23 06:10:13;;;;;;;;;;;;;;;26.29;59.68;101186.94;5067042;28;1474;-63
2021/08/23 06:12:41;;;;;;;;;;;;;;;26.22;60.20;101196.44;5064645;28;870;-61
2021/08/23 06:15:08;;;;;;;;;;;;;;;26.22;60.18;101195.56;5067680;28;1510;-61
2021/08/23 06:17:35;;;;;;;;;;;;;;;26.25;60.37;101190.84;5086811;28;1910;-60
2021/08/23 06:20:02;;;;;;;;;;;;;;;26.24;60.27;101188.28;5086862;28;1053;-59
2021/08/23 06:22:30;;;;;;;;;;;;;;;26.18;60.52;101178.09;5075090;28;1430;-61
2021/08/23 06:24:57;;;;;;;;;;;;;;;26.24;60.05;101185.59;5066872;28;1236;-61
2021/08/23 06:27:24;;;;;;;;;;;;;;;26.35;59.75;101183.78;5077428;28;1224;-62
2021/08/23 06:29:51;;;;;;;;;;;;;;;26.36;59.55;101188.13;5088569;28;897;-62
2021/08/23 06:32:17;;;;;;;;;;;;;;;26.31;59.96;101184.13;5088031;28;1311;-60
2021/08/23 06:34:44;;;;;;;;;;;;;;;26.27;60.01;101186.22;5087951;28;1043;-60
2021/08/23 06:37:11;;;;;;;;;;;;;;;26.22;60.15;101191.09;5086161;28;1914;-60
2021/08/23 06:39:38;;;;;;;;;;;;;;;26.28;59.95;101190.59;5085285;28;1681;-61
2021/08/23 06:42:05;;;;;;;;;;;;;;;26.25;59.98;101192.66;5066555;28;1319;-61
2021/08/23 06:44:32;;;;;;;;;;;;;;;26.20;59.99;101187.69;5077458;28;1547;-61
2021/08/23 06:46:58;;;;;;;;;;;;;;;26.20;60.25;101187.69;5066386;28;1210;-62
2021/08/23 06:49:26;;;;;;;;;;;;;;;26.24;60.19;101186.47;5064600;28;1248;-61
2021/08/23 06:51:52;;;;;;;;;;;;;;;26.18;60.23;101186.97;5066119;28;1295;-61
2021/08/23 06:54:19;;;;;;;;;;;;;;;26.27;60.15;101188.03;5066442;28;1131;-62
2021/08/23 06:56:46;;;;;;;;;;;;;;;26.31;59.88;101178.78;5066602;28;1991;-60
2021/08/23 06:59:13;;;;;;;;;;;;;;;26.26;59.90;101184.53;5068544;28;1053;-61
2021/08/23 07:01:40;;;;;;;;;;;;;;;26.20;60.18;101187.69;5088318;28;1225;-62
2021/08/23 07:04:09;;;;;;;;;;;;;;;26.19;59.42;101185.13;5090603;28;964;-60
2021/08/23 07:06:36;;;;;;;;;;;;;;;26.23;59.03;101179.44;5072529;28;1310;-59
2021/08/23 07:09:03;;;;;;;;;;;;;;;26.26;59.67;101186.34;5091023;28;1561;-59
2021/08/23 07:11:30;;;;;;;;;;;;;;;26.25;59.15;101179.28;5090518;28;1219;-59
2021/08/23 07:13:56;;;;;;;;;;;;;;;26.24;59.39;101182.94;5090274;28;1017;-60
2021/08/23 07:16:23;;;;;;;;;;;;;;;26.24;59.10;101178.44;5081566;28;1481;-62
2021/08/23 07:18:50;;;;;;;;;;;;;;;26.22;59.08;101174.22;5069714;28;1906;-62
2021/08/23 07:21:16;;;;;;;;;;;;;;;26.25;59.43;101180.16;5073173;28;1410;-61
2021/08/23 07:23:43;;;;;;;;;;;;;;;26.25;59.50;101174.81;5086751;28;1075;-62
2021/08/23 07:26:10;;;;;;;;;;;;;;;26.29;59.71;101172.75;5090506;28;1220;-61
2021/08/23 07:28:37;;;;;;;;;;;;;;;26.28;59.25;101176.38;5090552;28;1181;-61
2021/08/23 07:31:04;;;;;;;;;;;;;;;26.27;59.54;101172.00;5090819;28;1291;-60
2021/08/23 07:33:31;;;;;;;;;;;;;;;26.30;59.37;101185.94;5088405;28;1595;-61
2021/08/23 07:35:58;;;;;;;;;;;;;;;26.38;59.15;101175.50;5074136;28;1482;-60
2021/08/23 07:38:25;;;;;;;;;;;;;;;26.50;59.81;101169.16;5088724;28;1914;-65
2021/08/23 07:40:52;;;;;;;;;;;;;;;26.57;58.31;101175.66;5068825;28;1582;-62
2021/08/23 07:43:21;;;;;;;;;;;;;;;26.38;58.26;101174.66;5084786;28;1643;-61
2021/08/23 07:45:48;;;;;;;;;;;;;;;26.37;59.00;101176.47;5101013;28;1299;-61
2021/08/23 07:48:15;;;;;;;;;;;;;;;26.37;58.86;101179.16;5110564;28;912;-61
2021/08/23 07:50:41;;;;;;;;;;;;;;;26.50;58.43;101178.97;5095250;28;1260;-60
2021/08/23 07:53:11;;;;;;;;;;;;;;;26.47;58.14;101173.91;5089720;28;1419;-60
2021/08/23 07:55:38;;;;;;;;;;;;;;;26.46;58.49;101178.38;5103965;28;1347;-60
2021/08/23 07:58:05;;;;;;;;;;;;;;;26.42;58.37;101182.28;5110501;28;1906;-61
2021/08/23 08:00:32;;;;;;;;;;;;;;;26.35;58.47;101181.09;5109736;28;1349;-60
2021/08/23 08:02:59;;;;;;;;;;;;;;;26.37;58.76;101179.16;5108442;28;1561;-61
2021/08/23 08:05:26;;;;;;;;;;;;;;;26.44;58.58;101183.00;5096753;28;1295;-61
2021/08/23 08:07:52;;;;;;;;;;;;;;;26.41;58.57;101185.94;5078928;28;1564;-59
2021/08/23 08:10:20;;;;;;;;;;;;;;;26.35;58.51;101193.59;5092595;28;1287;-61
2021/08/23 08:12:47;;;;;;;;;;;;;;;26.34;58.91;101191.91;5109902;28;778;-59
2021/08/23 08:15:14;;;;;;;;;;;;;;;26.53;58.30;101195.63;5099461;28;2162;-61
2021/08/23 08:17:41;;;;;;;;;;;;;;;26.53;58.25;101194.75;5089794;28;1979;-60
2021/08/23 08:20:08;;;;;;;;;;;;;;;26.54;58.39;101193.75;5093707;28;1068;-60
2021/08/23 08:22:36;;;;;;;;;;;;;;;26.58;57.82;101184.53;5089319;28;1256;-60
2021/08/23 08:25:03;;;;;;;;;;;;;;;26.53;57.97;101192.09;5089335;28;1082;-62
2021/08/23 08:27:29;;;;;;;;;;;;;;;26.52;57.88;101188.56;5088093;28;1461;-60
2021/08/23 08:29:56;;;;;;;;;;;;;;;26.52;57.93;101191.22;5087287;28;1140;-61
2021/08/23 08:32:23;;;;;;;;;;;;;;;26.48;58.21;101187.09;5088790;28;1252;-62
2021/08/23 08:34:49;;;;;;;;;;;;;;;26.47;57.96;101182.75;5087190;28;1041;-61
2021/08/23 08:37:16;;;;;;;;;;;;;;;26.42;58.03;101190.28;5088318;28;1913;-61
2021/08/23 08:39:43;;;;;;;;;;;;;;;26.42;57.85;101192.97;5087276;28;1434;-61
2021/08/23 08:42:10;;;;;;;;;;;;;;;26.37;58.36;101188.97;5088725;28;1303;-61
2021/08/23 08:44:36;;;;;;;;;;;;;;;26.50;58.26;101182.50;5089202;28;1060;-63
2021/08/23 08:47:04;;;;;;;;;;;;;;;26.51;58.06;101186.84;5088600;28;1312;-61
2021/08/23 08:49:33;;;;;;;;;;;;;;;26.47;58.00;101185.44;5087263;28;1061;-60
2021/08/23 08:52:05;;;;;;;;;;;;;;;26.48;57.76;101194.28;5087382;28;1299;-60
2021/08/23 08:54:32;;;;;;;;;;;;;;;26.51;57.52;101186.84;5088113;28;1147;-60
2021/08/23 08:57:02;;;;;;;;;;;;;;;26.44;57.79;101195.53;5088003;28;1910;-60
2021/08/23 08:59:30;;;;;;;;;;;;;;;26.51;57.85;101205.56;5087740;28;910;-58
2021/08/23 09:01:57;;;;;;;;;;;;;;;26.62;58.05;101202.00;5088638;28;1291;-60
2021/08/23 09:04:31;;;;;;;;;;;;;;;26.50;58.45;101201.22;5088618;28;1096;-63
2021/08/23 09:07:04;;;;;;;;;;;;;;;26.47;58.46;101200.59;5087007;28;1239;-61
2021/08/23 09:09:32;;;;;;;;;;;;;;;26.48;58.29;101207.63;5087696;28;916;-62
2021/08/23 09:12:07;;;;;;;;;;;;;;;26.43;58.54;101205.34;5085618;28;1234;-62
2021/08/23 09:14:53;;;;;;;;;;;;;;;26.50;58.53;101211.03;5085818;28;1937;-60
2021/08/23 09:17:25;;;;;;;;;;;;;;;26.47;58.65;101206.81;5088611;28;1914;-62
2021/08/23 09:19:57;;;;;;;;;;;;;;;26.43;59.06;101210.69;5086926;28;1595;-61
2021/08/23 09:22:25;;;;;;;;;;;;;;;26.39;59.28;101203.91;5088626;28;1169;-61
2021/08/23 09:24:53;;;;;;;;;;;;;;;26.48;59.00;101210.28;5088153;28;963;-62
2021/08/23 09:27:23;;;;;;;;;;;;;;;26.40;59.70;101207.41;5088580;28;1299;-61
2021/08/23 09:29:59;;;;;;;;;;;;;;;26.37;59.50;101208.53;5087005;28;1088;-62
2021/08/23 09:32:28;;;;;;;;;;;;;;;26.36;59.89;101212.16;5088458;28;1409;-61
2021/08/23 09:35:06;;;;;;;;;;;;;;;26.38;59.65;101206.72;5086935;28;1351;-61
2021/08/23 09:37:35;;;;;;;;;;;;;;;26.32;59.68;101197.38;5086256;28;1988;-62
2021/08/23 09:40:10;;;;;;;;;;;;;;;26.39;59.64;101201.22;5088447;28;1119;-61
2021/08/23 09:42:37;;;;;;;;;;;;;;;26.33;60.01;101188.38;5088093;28;1349;-62
2021/08/23 09:45:25;;;;;;;;;;;;;;;26.35;60.20;101194.47;5086580;28;1309;-60
2021/08/23 09:48:04;;;;;;;;;;;;;;;26.35;60.52;101201.63;5087893;28;1227;-62
2021/08/23 09:50:39;;;;;;;;;;;;;;;26.33;60.10;101195.53;5088130;28;1307;-61
2021/08/23 09:53:12;;;;;;;;;;;;;;;26.41;60.27;101198.44;5086093;28;1100;-60
2021/08/23 09:55:42;;;;;;;;;;;;;;;26.37;60.35;101194.31;5088029;28;1242;-61
2021/08/23 09:58:10;;;;;;;;;;;;;;;26.34;61.00;101200.75;5085326;28;1993;-59
2021/08/23 10:00:41;;;;;;;;;;;;;;;26.39;60.50;101192.34;5078556;28;1438;-60
2021/08/23 10:03:16;;;;;;;;;;;;;;;26.30;61.12;101188.63;5064474;28;1078;-55
2021/08/23 10:05:48;;;;;;;;;;;;;;;26.40;60.69;101197.59;5065032;28;1347;-59
2021/08/23 10:08:16;;;;;;;;;;;;;;;26.39;60.87;101190.53;5067484;28;995;-59
2021/08/23 10:10:43;;;;;;;;;;;;;;;26.42;61.06;101186.75;5067653;28;1252;-60
2021/08/23 10:13:10;;;;;;;;;;;;;;;26.37;61.13;101186.31;5067083;28;917;-60
2021/08/23 10:15:57;;;;;;;;;;;;;;;26.32;61.55;101186.69;5067068;28;1284;-60
2021/08/23 10:18:24;;;;;;;;;;;;;;;26.39;61.25;101185.19;5065477;28;1946;-60
2021/08/23 10:20:51;;;;;;;;;;;;;;;26.36;61.16;101176.59;5065191;28;1266;-60
2021/08/23 10:23:19;;;;;;;;;;;;;;;26.37;61.37;101183.63;5064911;28;1461;-60
2021/08/23 10:25:48;;;;;;;;;;;;;;;26.33;61.79;101182.19;5067340;28;1240;-60
2021/08/23 10:28:20;;;;;;;;;;;;;;;26.37;61.96;101184.47;5067660;28;1100;-61
2021/08/23 10:31:04;;;;;;;;;;;;;;;26.38;61.51;101186.19;5067442;28;1266;-64
2021/08/23 10:33:35;;;;;;;;;;;;;;;26.39;61.63;101185.19;5085150;28;1857;-61
2021/08/23 10:36:08;;;;;;;;;;;;;;;26.34;61.53;101184.75;5083624;28;1660;-62
2021/08/23 10:38:39;;;;;;;;;;;;;;;26.35;62.35;101181.09;5086845;28;1985;-59
2021/08/23 10:41:10;;;;;;;;;;;;;;;26.33;61.84;101179.50;5096958;28;1295;-61
2021/08/23 10:43:50;;;;;;;;;;;;;;;26.35;60.88;101183.78;5099022;28;1264;-62
2021/08/23 10:46:20;;;;;;;;;;;;;;;26.16;59.54;101180.06;5107790;28;1244;-60
2021/08/23 10:48:50;;;;;;;;;;;;;;;26.05;58.88;101188.91;5107953;28;1227;-63
2021/08/23 10:51:34;;;;;;;;;;;;;;;25.98;58.52;101175.22;5108513;28;1251;-63
2021/08/23 10:54:02;;;;;;;;;;;;;;;25.96;57.46;101176.31;5109455;28;1126;-64
2021/08/23 10:56:35;;;;;;;;;;;;;;;25.79;56.76;101177.66;5097248;28;1275;-63
2021/08/23 10:59:31;;;;;;;;;;;;;;;25.78;56.36;101175.09;5089934;28;1931;-63
2021/08/23 11:01:59;;;;;;;;;;;;;;;25.83;56.17;101178.25;5062817;28;1382;-63
2021/08/23 11:04:32;;;;;;;;;;;;;;;25.84;55.63;101174.63;5090004;28;881;-65
2021/08/23 11:07:05;;;;;;;;;;;;;;;25.81;55.52;101177.50;5089324;28;1287;-67
2021/08/23 11:09:36;;;;;;;;;;;;;;;25.81;55.08;101178.34;5088299;28;935;-65
2021/08/23 11:12:11;;;;;;;;;;;;;;;25.83;55.65;101173.78;5089668;28;1307;-65
2021/08/23 11:14:44;;;;;;;;;;;;;;;25.78;55.38;101175.09;5069549;28;1036;-63
2021/08/23 11:17:30;;;;;;;;;;;;;;;25.77;55.01;101173.41;5079990;28;1534;-65
2021/08/23 11:20:07;;;;;;;;;;;;;;;25.78;55.13;101167.94;5068761;28;1075;-68
2021/08/23 11:22:34;;;;;;;;;;;;;;;26.05;54.18;101168.38;5068440;28;1244;-64
2021/08/23 11:25:02;;;;;;;;;;;;;;;26.06;54.35;101166.56;5066895;28;1168;-70
2021/08/23 11:27:30;;;;;;;;;;;;;;;26.09;54.12;101164.50;5066849;28;1248;-59
2021/08/23 11:29:58;;;;;;;;;;;;;;;26.14;53.84;101161.47;5069158;28;1150;-58
2021/08/23 11:32:29;;;;;;;;;;;;;;;26.11;53.69;101161.72;5067086;28;1193;-65
2021/08/23 11:34:57;;;;;;;;;;;;;;;26.02;53.98;101154.47;5069057;28;1135;-65
2021/08/23 11:37:37;;;;;;;;;;;;;;;26.06;53.92;101155.88;5068677;28;1899;-62
2021/08/23 11:40:08;;;;;;;;;;;;;;;26.04;55.52;101157.84;5068748;28;1164;-64
2021/08/23 11:42:37;;;;;;;;;;;;;;;26.00;54.49;101154.56;5066709;28;1569;-68
2021/08/23 11:45:28;;;;;;;;;;;;;;;26.03;55.27;101150.78;5074786;28;1373;-64
2021/08/23 11:47:57;;;;;;;;;;;;;;;25.93;55.60;101139.19;5085574;28;1141;-64
2021/08/23 11:50:27;;;;;;;;;;;;;;;25.93;56.42;101136.53;5087184;28;1318;-65
2021/08/23 11:52:55;;;;;;;;;;;;;;;25.97;56.24;101135.28;5087380;28;1244;-63
2021/08/23 11:55:30;;;;;;;;;;;;;;;25.98;55.72;101134.31;5087488;28;1587;-62
2021/08/23 11:58:02;;;;;;;;;;;;;;;25.99;55.29;101123.50;5083231;28;1972;-60
2021/08/23 12:00:31;;;;;;;;;;;;;;;25.93;55.27;101116.00;5084134;28;1389;-64
2021/08/23 12:03:12;;;;;;;;;;;;;;;25.94;55.26;101111.50;5083076;28;1473;-67
2021/08/23 12:05:41;;;;;;;;;;;;;;;25.93;54.83;101101.81;5084745;28;1370;-65
2021/08/23 12:08:09;;;;;;;;;;;;;;;25.71;55.81;101104.53;5084257;28;1326;-63
2021/08/23 12:10:37;;;;;;;;;;;;;;;25.54;56.09;101093.38;5084220;28;1307;-65
2021/08/23 12:13:24;;;;;;;;;;;;;;;25.66;55.63;101085.34;5084997;28;1235;-63
2021/08/23 12:15:56;;;;;;;;;;;;;;;25.74;55.56;101080.25;5085397;28;1351;-62
2021/08/23 12:18:48;;;;;;;;;;;;;;;25.69;56.03;101075.28;5086561;28;1902;-67
2021/08/23 12:21:15;;;;;;;;;;;;;;;25.75;55.52;101068.59;5087028;28;1422;-61
2021/08/23 12:23:56;;;;;;;;;;;;;;;25.78;55.80;101073.69;5084919;28;1188;-65
2021/08/23 12:26:35;;;;;;;;;;;;;;;25.79;55.56;101054.91;5084627;28;1377;-61
2021/08/23 12:29:04;;;;;;;;;;;;;;;25.74;55.69;101050.91;5084814;28;1260;-63
2021/08/23 12:31:31;;;;;;;;;;;;;;;25.70;55.30;101049.47;5086457;28;1283;-65
2021/08/23 12:34:09;;;;;;;;;;;;;;;25.77;55.77;101043.50;5065636;28;1248;-63
2021/08/23 12:36:35;;;;;;;;;;;;;;;25.78;55.11;101042.53;5086615;28;1379;-60
2021/08/23 12:39:03;;;;;;;;;;;;;;;25.73;55.66;101038.53;5086299;28;1905;-61
2021/08/23 12:41:31;;;;;;;;;;;;;;;25.69;55.64;101037.09;5085588;28;1256;-62
2021/08/23 12:43:57;;;;;;;;;;;;;;;25.76;55.34;101033.81;5082990;28;1197;-62
2021/08/23 12:46:25;;;;;;;;;;;;;;;25.73;55.54;101033.19;5085120;28;1413;-60
2021/08/23 12:48:52;;;;;;;;;;;;;;;25.85;55.73;101022.38;5085254;28;1216;-61
2021/08/23 12:51:19;;;;;;;;;;;;;;;25.86;56.22;101023.22;5084822;28;1291;-60
2021/08/23 12:53:48;;;;;;;;;;;;;;;25.89;55.20;101022.97;5085393;28;1216;-63
2021/08/23 12:56:15;;;;;;;;;;;;;;;25.90;55.04;101016.66;5085381;28;1382;-61